Weather at Baalbek Airfield [CLOSED]

Public forecast

Using degrees Celsius for public forecast. Weather courtesy of forecast.io.

Closest aviation weather report (METAR) to Baalbek Airfield

Closest report is Beirut Rafic Hariri International Airport, 36.7 nm (68.0 km) WSW.

2024/05/30 19:00 (retrieved 1 hour ago)

OLBA 301900Z 23005KT 200V260 8000 BKN026 22/17 Q1016 NOSIG

Closest aviation forecast (TAF) to Baalbek Airfield

Forecast is more than 6 hours old.

Closest forecast is Beirut Rafic Hariri International Airport, 36.7 nm (68.0 km) WSW.

2024/05/30 12:01 (retrieved 8 hours ago)

TAF OLBA 301000Z 3012/3118 26005KT 9999 FEW026 BECMG 3100/3103 19005KT TEMPO 3018/3106 5000 BR BECMG 3106/3109 26005KT 8000 BECMG 3115/3118 01005KT